PWSweather.com
Personal Weather Stations
Station Observations
KIDNAMPA57
Canyon County Idaho, Nampa, ID 83687

Canyon County IdahoNampa, ID 83687

Lat: 43.587235, Lon: -116.49831979999999

Elevation: 2615

Station Type: Davis Vantage Pro 2

Latest ConditionsUpdated 9:10:05 AM MDT Wednesday, Oct 17, 2018
Currently Today's Max Today's Min Today's Average
Temperature 37.9°F3.3°C 41.5°F5.3°C 34.6°F1.4°C 36.8°F2.7°C
Dew Point 30.0°F-1.1°C 34.1°F1.2°C 28.8°F-1.8°C 30.7°F-0.7°C
Winds 1.0 mph SE1.6 kmh SE 4.0 mph -6.4 kmh - - 0.6 mph 1.0 kmh
Wind Gusts 4.0 mph6.4 kmh 5.0 mph8.0 kmh - -
Humidity 73% 82% 73% 78%
Pressure 30.47 in1031.8 mb 30.47 in1031.8 mb 30.44 in1030.8 mb -
Hour Temp Dew Point Humidity Winds Wind Gusts Pressure Precip Precip Rate Daily Precip Total
09:10 AM 37.9°F3.3°C 30.0°F-1.1°C 73% 1.0 mph SE1.6 kmh SE 4.0 mph6.4 kmh 30.47 in1031.8 mb 0.00 in0.0 mm 0.00 in0.0 mm 0.00 in0.0 mm
09:05 AM 37.6°F3.1°C 30.1°F-1.1°C 74% 3.0 mph SE4.8 kmh SE 4.0 mph6.4 kmh 30.47 in1031.8 mb 0.00 in0.0 mm 0.00 in0.0 mm 0.00 in0.0 mm
09:00 AM 37.4°F3.0°C 29.9°F-1.2°C 74% 3.0 mph SE4.8 kmh SE 5.0 mph8.0 kmh 30.47 in1031.8 mb 0.00 in0.0 mm 0.00 in0.0 mm 0.00 in0.0 mm
08:55 AM 37.1°F2.8°C 29.6°F-1.3°C 74% 3.0 mph SE4.8 kmh SE 5.0 mph8.0 kmh 30.47 in1031.8 mb 0.00 in0.0 mm 0.00 in0.0 mm 0.00 in0.0 mm
08:50 AM 36.8°F2.7°C 29.3°F-1.5°C 74% 3.0 mph SE4.8 kmh SE 4.0 mph6.4 kmh 30.47 in1031.8 mb 0.00 in0.0 mm 0.00 in0.0 mm 0.00 in0.0 mm
08:45 AM 36.6°F2.6°C 29.4°F-1.4°C 75% 2.0 mph SE3.2 kmh SE 5.0 mph8.0 kmh 30.47 in1031.8 mb 0.00 in0.0 mm 0.00 in0.0 mm 0.00 in0.0 mm
08:40 AM 36.3°F2.4°C 29.2°F-1.6°C 75% 3.0 mph SE4.8 kmh SE 5.0 mph8.0 kmh 30.47 in1031.8 mb 0.00 in0.0 mm 0.00 in0.0 mm 0.00 in0.0 mm
08:35 AM 36.2°F2.3°C 29.4°F-1.4°C 76% 1.0 mph SE1.6 kmh SE 5.0 mph8.0 kmh 30.47 in1031.8 mb 0.00 in0.0 mm 0.00 in0.0 mm 0.00 in0.0 mm
08:30 AM 36.0°F2.2°C 29.2°F-1.6°C 76% 3.0 mph SE4.8 kmh SE 4.0 mph6.4 kmh 30.47 in1031.8 mb 0.00 in0.0 mm 0.00 in0.0 mm 0.00 in0.0 mm
08:25 AM 35.8°F2.1°C 29.0°F-1.7°C 76% 1.0 mph SE1.6 kmh SE 4.0 mph6.4 kmh 30.46 in1031.5 mb 0.00 in0.0 mm 0.00 in0.0 mm 0.00 in0.0 mm
08:20 AM 35.9°F2.2°C 29.1°F-1.6°C 76% 2.0 mph SE3.2 kmh SE 3.0 mph4.8 kmh 30.46 in1031.5 mb 0.00 in0.0 mm 0.00 in0.0 mm 0.00 in0.0 mm
08:15 AM 35.8°F2.1°C 29.0°F-1.7°C 76% 3.0 mph SE4.8 kmh SE 4.0 mph6.4 kmh 30.46 in1031.5 mb 0.00 in0.0 mm 0.00 in0.0 mm 0.00 in0.0 mm
08:10 AM 35.7°F2.1°C 28.9°F-1.7°C 76% 3.0 mph SE4.8 kmh SE 4.0 mph6.4 kmh 30.46 in1031.5 mb 0.00 in0.0 mm 0.00 in0.0 mm 0.00 in0.0 mm
08:05 AM 35.7°F2.1°C 28.9°F-1.7°C 76% 1.0 mph SE1.6 kmh SE 4.0 mph6.4 kmh 30.46 in1031.5 mb 0.00 in0.0 mm 0.00 in0.0 mm 0.00 in0.0 mm
08:00 AM 35.6°F2.0°C 28.8°F-1.8°C 76% 2.0 mph SE3.2 kmh SE 4.0 mph6.4 kmh 30.46 in1031.5 mb 0.00 in0.0 mm 0.00 in0.0 mm 0.00 in0.0 mm
07:55 AM 35.7°F2.1°C 28.9°F-1.7°C 76% 2.0 mph SE3.2 kmh SE 4.0 mph6.4 kmh 30.46 in1031.5 mb 0.00 in0.0 mm 0.00 in0.0 mm 0.00 in0.0 mm
07:50 AM 35.7°F2.1°C 28.9°F-1.7°C 76% 2.0 mph SE3.2 kmh SE 3.0 mph4.8 kmh 30.46 in1031.5 mb 0.00 in0.0 mm 0.00 in0.0 mm 0.00 in0.0 mm
07:45 AM 36.0°F2.2°C 28.9°F-1.7°C 75% 1.0 mph SE1.6 kmh SE 4.0 mph6.4 kmh 30.46 in1031.5 mb 0.00 in0.0 mm 0.00 in0.0 mm 0.00 in0.0 mm
07:40 AM 36.1°F2.3°C 29.0°F-1.7°C 75% 2.0 mph SE3.2 kmh SE 4.0 mph6.4 kmh 30.46 in1031.5 mb 0.00 in0.0 mm 0.00 in0.0 mm 0.00 in0.0 mm
07:35 AM 36.5°F2.5°C 29.3°F-1.5°C 75% 2.0 mph SE3.2 kmh SE 4.0 mph6.4 kmh 30.46 in1031.5 mb 0.00 in0.0 mm 0.00 in0.0 mm 0.00 in0.0 mm
07:30 AM 36.8°F2.7°C 29.3°F-1.5°C 74% 1.0 mph SSE1.6 kmh SSE 3.0 mph4.8 kmh 30.46 in1031.5 mb 0.00 in0.0 mm 0.00 in0.0 mm 0.00 in0.0 mm
07:25 AM 37.2°F2.9°C 29.4°F-1.4°C 73% 1.0 mph SSE1.6 kmh SSE 3.0 mph4.8 kmh 30.46 in1031.5 mb 0.00 in0.0 mm 0.00 in0.0 mm 0.00 in0.0 mm
07:20 AM 37.4°F3.0°C 29.6°F-1.3°C 73% 1.0 mph S1.6 kmh S 3.0 mph4.8 kmh 30.46 in1031.5 mb 0.00 in0.0 mm 0.00 in0.0 mm 0.00 in0.0 mm
07:15 AM 37.5°F3.1°C 30.0°F-1.1°C 74% 4.0 mph SSE6.4 kmh SSE 4.0 mph6.4 kmh 30.46 in1031.5 mb 0.00 in0.0 mm 0.00 in0.0 mm 0.00 in0.0 mm
07:10 AM 37.5°F3.1°C 30.0°F-1.1°C 74% 2.0 mph SSE3.2 kmh SSE 4.0 mph6.4 kmh 30.46 in1031.5 mb 0.00 in0.0 mm 0.00 in0.0 mm 0.00 in0.0 mm
07:05 AM 37.6°F3.1°C 30.4°F-0.9°C 75% 1.0 mph SSE1.6 kmh SSE 3.0 mph4.8 kmh 30.46 in1031.5 mb 0.00 in0.0 mm 0.00 in0.0 mm 0.00 in0.0 mm
07:00 AM 37.4°F3.0°C 30.5°F-0.8°C 76% 3.0 mph SSE4.8 kmh SSE 5.0 mph8.0 kmh 30.46 in1031.5 mb 0.00 in0.0 mm 0.00 in0.0 mm 0.00 in0.0 mm
06:55 AM 36.9°F2.7°C 30.4°F-0.9°C 77% 3.0 mph E4.8 kmh E 4.0 mph6.4 kmh 30.46 in1031.5 mb 0.00 in0.0 mm 0.00 in0.0 mm 0.00 in0.0 mm
06:50 AM 36.7°F2.6°C 30.5°F-0.8°C 78% 2.0 mph E3.2 kmh E 3.0 mph4.8 kmh 30.46 in1031.5 mb 0.00 in0.0 mm 0.00 in0.0 mm 0.00 in0.0 mm
06:45 AM 36.6°F2.6°C 30.4°F-0.9°C 78% Calm Calm 3.0 mph4.8 kmh 30.46 in1031.5 mb 0.00 in0.0 mm 0.00 in0.0 mm 0.00 in0.0 mm
06:40 AM 36.7°F2.6°C 30.5°F-0.8°C 78% Calm Calm 3.0 mph4.8 kmh 30.46 in1031.5 mb 0.00 in0.0 mm 0.00 in0.0 mm 0.00 in0.0 mm
06:35 AM 36.6°F2.6°C 30.4°F-0.9°C 78% 1.0 mph E1.6 kmh E 2.0 mph3.2 kmh 30.46 in1031.5 mb 0.00 in0.0 mm 0.00 in0.0 mm 0.00 in0.0 mm
06:30 AM 36.6°F2.6°C 30.4°F-0.9°C 78% Calm Calm 3.0 mph4.8 kmh 30.46 in1031.5 mb 0.00 in0.0 mm 0.00 in0.0 mm 0.00 in0.0 mm
06:25 AM 36.2°F2.3°C 30.3°F-0.9°C 79% 1.0 mph E1.6 kmh E 3.0 mph4.8 kmh 30.45 in1031.2 mb 0.00 in0.0 mm 0.00 in0.0 mm 0.00 in0.0 mm
06:20 AM 35.8°F2.1°C 29.9°F-1.2°C 79% 1.0 mph E1.6 kmh E 2.0 mph3.2 kmh 30.45 in1031.2 mb 0.00 in0.0 mm 0.00 in0.0 mm 0.00 in0.0 mm
06:15 AM 35.8°F2.1°C 29.9°F-1.2°C 79% Calm Calm 1.0 mph1.6 kmh 30.46 in1031.5 mb 0.00 in0.0 mm 0.00 in0.0 mm 0.00 in0.0 mm
06:10 AM 35.6°F2.0°C 30.1°F-1.1°C 80% Calm Calm 1.0 mph1.6 kmh 30.46 in1031.5 mb 0.00 in0.0 mm 0.00 in0.0 mm 0.00 in0.0 mm
06:05 AM 35.3°F1.8°C 30.1°F-1.1°C 81% Calm Calm 1.0 mph1.6 kmh 30.45 in1031.2 mb 0.00 in0.0 mm 0.00 in0.0 mm 0.00 in0.0 mm
06:00 AM 35.1°F1.7°C 29.9°F-1.2°C 81% 1.0 mph E1.6 kmh E 1.0 mph1.6 kmh 30.46 in1031.5 mb 0.00 in0.0 mm 0.00 in0.0 mm 0.00 in0.0 mm
05:55 AM 35.0°F1.7°C 29.8°F-1.2°C 81% 1.0 mph E1.6 kmh E 1.0 mph1.6 kmh 30.46 in1031.5 mb 0.00 in0.0 mm 0.00 in0.0 mm 0.00 in0.0 mm
05:50 AM 34.8°F1.6°C 29.6°F-1.3°C 81% Calm Calm -- 30.46 in1031.5 mb 0.00 in0.0 mm 0.00 in0.0 mm 0.00 in0.0 mm
05:45 AM 34.9°F1.6°C 29.7°F-1.3°C 81% Calm Calm -- 30.45 in1031.2 mb 0.00 in0.0 mm 0.00 in0.0 mm 0.00 in0.0 mm
05:40 AM 35.1°F1.7°C 30.2°F-1.0°C 82% Calm Calm -- 30.45 in1031.2 mb 0.00 in0.0 mm 0.00 in0.0 mm 0.00 in0.0 mm
05:35 AM 34.7°F1.5°C 29.8°F-1.2°C 82% Calm Calm -- 30.45 in1031.2 mb 0.00 in0.0 mm 0.00 in0.0 mm 0.00 in0.0 mm
05:30 AM 34.6°F1.4°C 29.7°F-1.3°C 82% Calm Calm -- 30.45 in1031.2 mb 0.00 in0.0 mm 0.00 in0.0 mm 0.00 in0.0 mm
05:25 AM 34.6°F1.4°C 29.7°F-1.3°C 82% Calm Calm -- 30.45 in1031.2 mb 0.00 in0.0 mm 0.00 in0.0 mm 0.00 in0.0 mm
05:20 AM 34.9°F1.6°C 29.7°F-1.3°C 81% Calm Calm -- 30.45 in1031.2 mb 0.00 in0.0 mm 0.00 in0.0 mm 0.00 in0.0 mm
05:15 AM 35.3°F1.8°C 30.4°F-0.9°C 82% Calm Calm -- 30.45 in1031.2 mb 0.00 in0.0 mm 0.00 in0.0 mm 0.00 in0.0 mm
05:10 AM 35.3°F1.8°C 30.4°F-0.9°C 82% Calm Calm -- 30.45 in1031.2 mb 0.00 in0.0 mm 0.00 in0.0 mm 0.00 in0.0 mm
05:05 AM 35.3°F1.8°C 30.4°F-0.9°C 82% Calm Calm -- 30.45 in1031.2 mb 0.00 in0.0 mm 0.00 in0.0 mm 0.00 in0.0 mm
05:00 AM 35.3°F1.8°C 30.4°F-0.9°C 82% Calm Calm -- 30.45 in1031.2 mb 0.00 in0.0 mm 0.00 in0.0 mm 0.00 in0.0 mm
04:55 AM 35.2°F1.8°C 30.3°F-0.9°C 82% Calm Calm -- 30.45 in1031.2 mb 0.00 in0.0 mm 0.00 in0.0 mm 0.00 in0.0 mm
04:50 AM 35.2°F1.8°C 30.3°F-0.9°C 82% Calm Calm -- 30.44 in1030.8 mb 0.00 in0.0 mm 0.00 in0.0 mm 0.00 in0.0 mm
04:45 AM 35.2°F1.8°C 30.3°F-0.9°C 82% Calm Calm -- 30.45 in1031.2 mb 0.00 in0.0 mm 0.00 in0.0 mm 0.00 in0.0 mm
04:40 AM 35.2°F1.8°C 30.3°F-0.9°C 82% Calm Calm -- 30.45 in1031.2 mb 0.00 in0.0 mm 0.00 in0.0 mm 0.00 in0.0 mm
04:35 AM 35.3°F1.8°C 30.1°F-1.1°C 81% Calm Calm -- 30.45 in1031.2 mb 0.00 in0.0 mm 0.00 in0.0 mm 0.00 in0.0 mm
04:30 AM 35.4°F1.9°C 30.2°F-1.0°C 81% Calm Calm -- 30.45 in1031.2 mb 0.00 in0.0 mm 0.00 in0.0 mm 0.00 in0.0 mm
04:25 AM 35.7°F2.1°C 30.2°F-1.0°C 80% Calm Calm -- 30.44 in1030.8 mb 0.00 in0.0 mm 0.00 in0.0 mm 0.00 in0.0 mm
04:20 AM 36.0°F2.2°C 30.4°F-0.9°C 80% Calm Calm -- 30.44 in1030.8 mb 0.00 in0.0 mm 0.00 in0.0 mm 0.00 in0.0 mm
04:15 AM 35.5°F1.9°C 30.3°F-0.9°C 81% Calm Calm -- 30.44 in1030.8 mb 0.00 in0.0 mm 0.00 in0.0 mm 0.00 in0.0 mm
04:10 AM 35.5°F1.9°C 30.3°F-0.9°C 81% Calm Calm -- 30.45 in1031.2 mb 0.00 in0.0 mm 0.00 in0.0 mm 0.00 in0.0 mm
04:05 AM 35.8°F2.1°C 30.3°F-0.9°C 80% Calm Calm -- 30.44 in1030.8 mb 0.00 in0.0 mm 0.00 in0.0 mm 0.00 in0.0 mm
04:00 AM 36.0°F2.2°C 30.4°F-0.9°C 80% Calm Calm -- 30.45 in1031.2 mb 0.00 in0.0 mm 0.00 in0.0 mm 0.00 in0.0 mm
03:55 AM 36.3°F2.4°C 30.4°F-0.9°C 79% Calm Calm -- 30.44 in1030.8 mb 0.00 in0.0 mm 0.00 in0.0 mm 0.00 in0.0 mm
03:50 AM 36.1°F2.3°C 30.5°F-0.8°C 80% Calm Calm -- 30.44 in1030.8 mb 0.00 in0.0 mm 0.00 in0.0 mm 0.00 in0.0 mm
03:45 AM 36.2°F2.3°C 30.3°F-0.9°C 79% Calm Calm -- 30.44 in1030.8 mb 0.00 in0.0 mm 0.00 in0.0 mm 0.00 in0.0 mm
03:40 AM 36.7°F2.6°C 30.8°F-0.7°C 79% Calm Calm -- 30.44 in1030.8 mb 0.00 in0.0 mm 0.00 in0.0 mm 0.00 in0.0 mm
03:35 AM 36.4°F2.4°C 30.5°F-0.8°C 79% Calm Calm -- 30.45 in1031.2 mb 0.00 in0.0 mm 0.00 in0.0 mm 0.00 in0.0 mm
03:30 AM 36.6°F2.6°C 30.7°F-0.7°C 79% Calm Calm -- 30.45 in1031.2 mb 0.00 in0.0 mm 0.00 in0.0 mm 0.00 in0.0 mm
03:25 AM 36.5°F2.5°C 30.9°F-0.6°C 80% Calm Calm -- 30.45 in1031.2 mb 0.00 in0.0 mm 0.00 in0.0 mm 0.00 in0.0 mm
03:20 AM 36.3°F2.4°C 30.7°F-0.7°C 80% Calm Calm -- 30.45 in1031.2 mb 0.00 in0.0 mm 0.00 in0.0 mm 0.00 in0.0 mm
03:15 AM 36.3°F2.4°C 30.7°F-0.7°C 80% Calm Calm -- 30.45 in1031.2 mb 0.00 in0.0 mm 0.00 in0.0 mm 0.00 in0.0 mm
03:10 AM 36.3°F2.4°C 30.7°F-0.7°C 80% Calm Calm -- 30.45 in1031.2 mb 0.00 in0.0 mm 0.00 in0.0 mm 0.00 in0.0 mm
03:05 AM 36.3°F2.4°C 30.7°F-0.7°C 80% Calm Calm -- 30.45 in1031.2 mb 0.00 in0.0 mm 0.00 in0.0 mm 0.00 in0.0 mm
03:00 AM 36.3°F2.4°C 30.7°F-0.7°C 80% Calm Calm -- 30.46 in1031.5 mb 0.00 in0.0 mm 0.00 in0.0 mm 0.00 in0.0 mm
02:55 AM 36.4°F2.4°C 30.8°F-0.7°C 80% Calm Calm -- 30.46 in1031.5 mb 0.00 in0.0 mm 0.00 in0.0 mm 0.00 in0.0 mm
02:50 AM 36.6°F2.6°C 31.0°F-0.6°C 80% Calm Calm -- 30.45 in1031.2 mb 0.00 in0.0 mm 0.00 in0.0 mm 0.00 in0.0 mm
02:45 AM 36.6°F2.6°C 31.0°F-0.6°C 80% Calm Calm -- 30.45 in1031.2 mb 0.00 in0.0 mm 0.00 in0.0 mm 0.00 in0.0 mm
02:40 AM 36.7°F2.6°C 30.8°F-0.7°C 79% Calm Calm -- 30.46 in1031.5 mb 0.00 in0.0 mm 0.00 in0.0 mm 0.00 in0.0 mm
02:35 AM 36.9°F2.7°C 31.0°F-0.6°C 79% Calm Calm -- 30.46 in1031.5 mb 0.00 in0.0 mm 0.00 in0.0 mm 0.00 in0.0 mm
02:30 AM 37.0°F2.8°C 31.1°F-0.5°C 79% Calm Calm -- 30.46 in1031.5 mb 0.00 in0.0 mm 0.00 in0.0 mm 0.00 in0.0 mm
02:25 AM 37.2°F2.9°C 31.3°F-0.4°C 79% Calm Calm -- 30.45 in1031.2 mb 0.00 in0.0 mm 0.00 in0.0 mm 0.00 in0.0 mm
02:20 AM 37.1°F2.8°C 31.2°F-0.4°C 79% Calm Calm -- 30.45 in1031.2 mb 0.00 in0.0 mm 0.00 in0.0 mm 0.00 in0.0 mm
02:15 AM 36.9°F2.7°C 31.3°F-0.4°C 80% Calm Calm -- 30.45 in1031.2 mb 0.00 in0.0 mm 0.00 in0.0 mm 0.00 in0.0 mm
02:10 AM 36.9°F2.7°C 31.3°F-0.4°C 80% Calm Calm -- 30.45 in1031.2 mb 0.00 in0.0 mm 0.00 in0.0 mm 0.00 in0.0 mm
02:05 AM 37.1°F2.8°C 31.5°F-0.3°C 80% Calm Calm -- 30.45 in1031.2 mb 0.00 in0.0 mm 0.00 in0.0 mm 0.00 in0.0 mm
02:00 AM 37.3°F2.9°C 31.4°F-0.3°C 79% Calm Calm -- 30.45 in1031.2 mb 0.00 in0.0 mm 0.00 in0.0 mm 0.00 in0.0 mm
01:55 AM 37.4°F3.0°C 31.5°F-0.3°C 79% Calm Calm -- 30.45 in1031.2 mb 0.00 in0.0 mm 0.00 in0.0 mm 0.00 in0.0 mm
01:50 AM 37.3°F2.9°C 31.4°F-0.3°C 79% Calm Calm -- 30.45 in1031.2 mb 0.00 in0.0 mm 0.00 in0.0 mm 0.00 in0.0 mm
01:45 AM 37.4°F3.0°C 31.5°F-0.3°C 79% Calm Calm -- 30.45 in1031.2 mb 0.00 in0.0 mm 0.00 in0.0 mm 0.00 in0.0 mm
01:40 AM 37.4°F3.0°C 31.5°F-0.3°C 79% Calm Calm -- 30.45 in1031.2 mb 0.00 in0.0 mm 0.00 in0.0 mm 0.00 in0.0 mm
01:35 AM 37.5°F3.1°C 31.9°F-0.1°C 80% Calm Calm -- 30.45 in1031.2 mb 0.00 in0.0 mm 0.00 in0.0 mm 0.00 in0.0 mm
01:30 AM 37.4°F3.0°C 31.5°F-0.3°C 79% Calm Calm -- 30.45 in1031.2 mb 0.00 in0.0 mm 0.00 in0.0 mm 0.00 in0.0 mm
01:25 AM 37.6°F3.1°C 31.7°F-0.2°C 79% Calm Calm -- 30.45 in1031.2 mb 0.00 in0.0 mm 0.00 in0.0 mm 0.00 in0.0 mm
01:20 AM 37.8°F3.2°C 31.9°F-0.1°C 79% Calm Calm -- 30.45 in1031.2 mb 0.00 in0.0 mm 0.00 in0.0 mm 0.00 in0.0 mm
01:15 AM 37.9°F3.3°C 32.0°F0.0°C 79% Calm Calm -- 30.45 in1031.2 mb 0.00 in0.0 mm 0.00 in0.0 mm 0.00 in0.0 mm
01:10 AM 38.2°F3.4°C 32.0°F0.0°C 78% Calm Calm -- 30.45 in1031.2 mb 0.00 in0.0 mm 0.00 in0.0 mm 0.00 in0.0 mm
01:05 AM 38.5°F3.6°C 32.3°F0.2°C 78% Calm Calm -- 30.45 in1031.2 mb 0.00 in0.0 mm 0.00 in0.0 mm 0.00 in0.0 mm
01:00 AM 38.6°F3.7°C 32.4°F0.2°C 78% Calm Calm -- 30.45 in1031.2 mb 0.00 in0.0 mm 0.00 in0.0 mm 0.00 in0.0 mm
12:55 AM 39.1°F3.9°C 32.5°F0.3°C 77% Calm Calm -- 30.45 in1031.2 mb 0.00 in0.0 mm 0.00 in0.0 mm 0.00 in0.0 mm
12:50 AM 39.4°F4.1°C 32.8°F0.4°C 77% Calm Calm -- 30.45 in1031.2 mb 0.00 in0.0 mm 0.00 in0.0 mm 0.00 in0.0 mm
12:45 AM 39.5°F4.2°C 32.9°F0.5°C 77% Calm Calm -- 30.45 in1031.2 mb 0.00 in0.0 mm 0.00 in0.0 mm 0.00 in0.0 mm
12:40 AM 40.1°F4.5°C 33.2°F0.7°C 76% Calm Calm -- 30.45 in1031.2 mb 0.00 in0.0 mm 0.00 in0.0 mm 0.00 in0.0 mm
12:35 AM 40.1°F4.5°C 33.2°F0.7°C 76% Calm Calm -- 30.45 in1031.2 mb 0.00 in0.0 mm 0.00 in0.0 mm 0.00 in0.0 mm
12:30 AM 40.3°F4.6°C 33.4°F0.8°C 76% Calm Calm -- 30.45 in1031.2 mb 0.00 in0.0 mm 0.00 in0.0 mm 0.00 in0.0 mm
12:25 AM 40.5°F4.7°C 33.5°F0.8°C 76% Calm Calm -- 30.45 in1031.2 mb 0.00 in0.0 mm 0.00 in0.0 mm 0.00 in0.0 mm
12:20 AM 40.6°F4.8°C 33.3°F0.7°C 75% Calm Calm -- 30.45 in1031.2 mb 0.00 in0.0 mm 0.00 in0.0 mm 0.00 in0.0 mm
12:15 AM 41.0°F5.0°C 33.7°F0.9°C 75% Calm Calm -- 30.45 in1031.2 mb 0.00 in0.0 mm 0.00 in0.0 mm 0.00 in0.0 mm
12:10 AM 41.5°F5.3°C 33.8°F1.0°C 74% Calm Calm -- 30.45 in1031.2 mb 0.00 in0.0 mm 0.00 in0.0 mm 0.00 in0.0 mm
12:05 AM 41.4°F5.2°C 34.1°F1.2°C 75% Calm Calm -- 30.45 in1031.2 mb 0.00 in0.0 mm 0.00 in0.0 mm 0.00 in0.0 mm
12:00 AM 41.5°F5.3°C 33.8°F1.0°C 74% Calm Calm -- 30.45 in1031.2 mb 0.00 in0.0 mm 0.00 in0.0 mm 0.00 in0.0 mm